createdAt,value
2017-12-30T00:00:49.738Z,97.46
2017-12-30T00:03:17.267Z,97.76
2017-12-30T00:05:44.797Z,97.27
2017-12-30T00:08:12.340Z,96.46
2017-12-30T00:10:39.874Z,96.62
2017-12-30T00:13:07.401Z,96.66
2017-12-30T00:15:34.955Z,96.25
2017-12-30T00:18:02.468Z,96.52
2017-12-30T00:20:30.006Z,96.78
2017-12-30T00:22:57.547Z,96.38
2017-12-30T00:25:25.095Z,96.40
2017-12-30T00:27:52.610Z,95.81
2017-12-30T00:30:20.148Z,95.22
2017-12-30T00:32:47.697Z,94.56
2017-12-30T00:35:15.236Z,94.14
2017-12-30T00:37:42.790Z,93.98
2017-12-30T00:40:10.468Z,94.09
2017-12-30T00:42:38.060Z,93.76
2017-12-30T00:45:05.593Z,93.47
2017-12-30T00:47:33.141Z,92.93
2017-12-30T00:50:00.672Z,92.35
2017-12-30T00:52:28.185Z,92.39
2017-12-30T00:54:55.716Z,92.31
2017-12-30T00:57:23.235Z,91.94
2017-12-30T00:59:50.772Z,91.99
2017-12-30T01:02:18.306Z,92.71
2017-12-30T01:04:45.827Z,93.26
2017-12-30T01:07:13.361Z,93.12
2017-12-30T01:09:40.881Z,93.72
2017-12-30T01:12:08.452Z,93.11
2017-12-30T01:14:35.975Z,93.31
2017-12-30T01:17:03.542Z,93.82
2017-12-30T01:19:31.072Z,94.15
2017-12-30T01:21:58.636Z,94.89
2017-12-30T01:24:26.205Z,95.09
2017-12-30T01:26:53.731Z,94.01
2017-12-30T01:29:21.259Z,94.37
2017-12-30T01:31:48.797Z,94.52
2017-12-30T01:34:16.341Z,95.03
2017-12-30T01:36:43.855Z,94.98
2017-12-30T01:39:11.407Z,94.40
2017-12-30T01:41:38.925Z,95.75
2017-12-30T01:44:06.457Z,96.59
2017-12-30T01:46:33.993Z,97.00
2017-12-30T01:49:04.275Z,96.97
2017-12-30T01:51:31.805Z,97.53
2017-12-30T01:53:59.382Z,97.12
2017-12-30T01:56:26.888Z,96.81
2017-12-30T01:58:54.417Z,97.28
2017-12-30T02:01:21.928Z,97.56
2017-12-30T02:03:49.425Z,97.86
2017-12-30T02:06:16.962Z,98.52
2017-12-30T02:08:44.483Z,98.68
2017-12-30T02:11:11.998Z,98.78
2017-12-30T02:13:39.511Z,98.64
2017-12-30T02:16:07.035Z,98.10
2017-12-30T02:18:34.555Z,97.74
2017-12-30T02:21:02.086Z,97.97
2017-12-30T02:23:29.613Z,98.78
2017-12-30T02:25:57.153Z,99.38
2017-12-30T02:28:24.667Z,99.50
2017-12-30T02:30:52.202Z,99.03
2017-12-30T02:33:19.727Z,98.11
2017-12-30T02:35:47.300Z,98.02
2017-12-30T02:38:14.836Z,98.15
2017-12-30T02:40:42.367Z,98.14
2017-12-30T02:43:09.915Z,98.78
2017-12-30T02:45:39.908Z,98.69
2017-12-30T02:48:07.528Z,98.82
2017-12-30T02:50:35.110Z,98.21
2017-12-30T02:53:02.627Z,97.48
2017-12-30T02:55:30.176Z,96.75
2017-12-30T02:57:57.752Z,96.36
2017-12-30T03:00:25.288Z,96.44
2017-12-30T03:02:52.802Z,96.26
2017-12-30T03:05:20.312Z,95.59
2017-12-30T03:07:47.843Z,95.50
2017-12-30T03:10:15.361Z,94.92
2017-12-30T03:12:42.915Z,95.22
2017-12-30T03:15:10.446Z,95.25
2017-12-30T03:17:37.987Z,95.08
2017-12-30T03:20:05.518Z,95.53
2017-12-30T03:22:33.052Z,95.49
2017-12-30T03:25:00.573Z,95.92
2017-12-30T03:27:28.106Z,96.63
2017-12-30T03:29:55.621Z,96.08
2017-12-30T03:32:23.147Z,96.21
2017-12-30T03:34:50.672Z,95.74
2017-12-30T03:37:18.198Z,96.04
2017-12-30T03:39:45.715Z,96.80
2017-12-30T03:42:13.233Z,96.91
2017-12-30T03:44:40.778Z,96.79
2017-12-30T03:47:08.332Z,97.84
2017-12-30T03:49:35.857Z,97.35
2017-12-30T03:52:03.462Z,97.17
2017-12-30T03:54:30.982Z,97.11
2017-12-30T03:56:58.546Z,97.34
2017-12-30T03:59:26.078Z,98.17
2017-12-30T04:01:53.602Z,97.88
2017-12-30T04:04:21.142Z,97.77
2017-12-30T04:06:48.668Z,97.18
2017-12-30T04:09:16.183Z,97.50
2017-12-30T04:11:43.702Z,97.70
2017-12-30T04:14:11.231Z,97.54
2017-12-30T04:16:38.772Z,97.31
2017-12-30T04:19:06.312Z,97.18
2017-12-30T04:21:33.833Z,97.22
2017-12-30T04:24:01.364Z,97.91
2017-12-30T04:26:28.881Z,98.04
2017-12-30T04:28:56.392Z,97.85
2017-12-30T04:31:23.906Z,97.45
2017-12-30T04:33:51.431Z,97.08
2017-12-30T04:36:18.976Z,97.22
2017-12-30T04:38:46.496Z,97.66
2017-12-30T04:41:14.026Z,97.95
2017-12-30T04:43:41.541Z,97.98
2017-12-30T04:46:09.082Z,98.25
2017-12-30T04:48:36.618Z,98.54
2017-12-30T04:51:04.133Z,98.44
2017-12-30T04:53:31.678Z,98.59
2017-12-30T04:55:59.220Z,98.19
2017-12-30T04:58:26.753Z,98.55
2017-12-30T05:00:54.273Z,98.51
2017-12-30T05:03:21.803Z,98.58
2017-12-30T05:05:49.327Z,98.61
2017-12-30T05:08:16.856Z,98.63
2017-12-30T05:10:44.408Z,98.89
2017-12-30T05:13:11.917Z,98.59
2017-12-30T05:15:39.451Z,98.08
2017-12-30T05:18:07.005Z,97.65
2017-12-30T05:20:34.533Z,97.86
2017-12-30T05:23:02.053Z,97.94
2017-12-30T05:25:29.611Z,96.93
2017-12-30T05:27:57.213Z,95.94
2017-12-30T05:30:24.741Z,96.24
2017-12-30T05:32:52.362Z,98.00
2017-12-30T05:35:19.876Z,97.89
2017-12-30T05:37:47.408Z,97.28
2017-12-30T05:40:14.937Z,96.87
2017-12-30T05:42:42.493Z,96.81
2017-12-30T05:45:10.057Z,96.34
2017-12-30T05:47:37.597Z,95.95
2017-12-30T05:50:05.110Z,96.17
2017-12-30T05:52:32.657Z,96.76
2017-12-30T05:55:00.170Z,97.45
2017-12-30T05:57:27.703Z,96.49
2017-12-30T05:59:55.258Z,96.79
2017-12-30T06:02:22.782Z,96.49
2017-12-30T06:04:50.306Z,93.47
2017-12-30T06:07:17.851Z,93.64
2017-12-30T06:09:45.366Z,91.73
2017-12-30T06:12:12.901Z,90.91
2017-12-30T06:14:40.428Z,91.04
2017-12-30T06:17:08.006Z,91.01
2017-12-30T06:19:35.508Z,92.18
2017-12-30T06:22:03.039Z,90.01
2017-12-30T06:24:30.586Z,89.07
2017-12-30T06:26:58.103Z,88.78
2017-12-30T06:29:25.653Z,89.29
2017-12-30T06:31:53.221Z,88.32
2017-12-30T06:34:20.799Z,88.94
2017-12-30T06:36:48.407Z,89.70
2017-12-30T06:39:15.956Z,88.92
2017-12-30T06:41:43.476Z,89.09
2017-12-30T06:44:11.001Z,88.87
2017-12-30T06:46:38.548Z,92.04
2017-12-30T06:49:06.068Z,94.08
2017-12-30T06:51:33.594Z,95.09
2017-12-30T06:54:01.128Z,94.80
2017-12-30T06:56:28.692Z,94.16
2017-12-30T06:58:56.189Z,93.70
2017-12-30T07:01:23.708Z,94.00
2017-12-30T07:03:51.224Z,94.09
2017-12-30T07:06:18.764Z,94.91
2017-12-30T07:08:46.306Z,95.12
2017-12-30T07:11:13.816Z,94.89
2017-12-30T07:13:41.331Z,95.27
2017-12-30T07:16:08.862Z,96.42
2017-12-30T07:18:36.412Z,95.92
2017-12-30T07:21:03.934Z,95.50
2017-12-30T07:23:31.488Z,94.91
2017-12-30T07:25:59.002Z,94.66
2017-12-30T07:28:26.516Z,95.13
2017-12-30T07:30:54.049Z,95.86
2017-12-30T07:33:21.580Z,98.22
2017-12-30T07:35:49.113Z,98.64
2017-12-30T07:38:16.657Z,98.38
2017-12-30T07:40:44.189Z,98.02
2017-12-30T07:43:11.744Z,97.47
2017-12-30T07:45:39.326Z,97.46
2017-12-30T07:48:06.849Z,97.21
2017-12-30T07:50:34.367Z,96.51
2017-12-30T07:53:01.885Z,95.96
2017-12-30T07:55:29.394Z,95.68
2017-12-30T07:57:56.911Z,95.77
2017-12-30T08:00:24.438Z,96.19
2017-12-30T08:02:51.959Z,96.24
2017-12-30T08:05:19.487Z,95.34
2017-12-30T08:07:47.020Z,95.43
2017-12-30T08:10:14.563Z,95.41
2017-12-30T08:12:42.072Z,95.33
2017-12-30T08:15:09.604Z,94.78
2017-12-30T08:17:37.144Z,94.50
2017-12-30T08:20:04.663Z,95.10
2017-12-30T08:22:32.202Z,96.32
2017-12-30T08:24:59.845Z,96.41
2017-12-30T08:27:27.348Z,95.84
2017-12-30T08:29:54.897Z,94.02
2017-12-30T08:32:22.427Z,94.94
2017-12-30T08:34:49.974Z,95.88
2017-12-30T08:37:17.507Z,94.53
2017-12-30T08:39:45.035Z,94.98
2017-12-30T08:42:12.589Z,94.12
2017-12-30T08:44:40.118Z,93.04
2017-12-30T08:47:07.637Z,91.55
2017-12-30T08:49:35.172Z,90.97
2017-12-30T08:52:02.718Z,92.65
2017-12-30T08:54:30.269Z,92.35
2017-12-30T08:56:57.803Z,90.87
2017-12-30T08:59:25.359Z,91.17
2017-12-30T09:01:52.867Z,89.39
2017-12-30T09:04:20.382Z,89.55
2017-12-30T09:06:47.987Z,89.67
2017-12-30T09:09:15.652Z,88.45
2017-12-30T09:11:43.185Z,89.39
2017-12-30T09:14:10.708Z,89.25
2017-12-30T09:16:38.326Z,89.18
2017-12-30T09:19:05.853Z,90.35
2017-12-30T09:21:33.378Z,89.15
2017-12-30T09:24:00.934Z,88.77
2017-12-30T09:26:28.472Z,87.82
2017-12-30T09:28:56.022Z,88.87
2017-12-30T09:31:23.634Z,92.44
2017-12-30T09:33:51.174Z,92.70
2017-12-30T09:36:18.735Z,92.62
2017-12-30T09:38:46.258Z,93.27
2017-12-30T09:41:13.804Z,93.65
2017-12-30T09:43:41.373Z,94.27
2017-12-30T09:46:08.917Z,94.29
2017-12-30T09:48:36.442Z,93.22
2017-12-30T09:51:03.985Z,95.09
2017-12-30T09:53:31.523Z,95.20
2017-12-30T09:55:59.069Z,94.39
2017-12-30T09:58:26.624Z,93.42
2017-12-30T10:00:54.177Z,92.77
2017-12-30T10:03:21.702Z,93.47
2017-12-30T10:05:49.233Z,93.64
2017-12-30T10:08:16.863Z,92.15
2017-12-30T10:10:44.389Z,90.83
2017-12-30T10:13:11.919Z,90.39
2017-12-30T10:15:39.448Z,91.41
2017-12-30T10:18:06.991Z,89.98
2017-12-30T10:20:34.528Z,92.09
2017-12-30T10:23:02.549Z,90.90
2017-12-30T10:25:30.147Z,90.38
2017-12-30T10:27:57.679Z,89.77
2017-12-30T10:30:25.197Z,89.33
2017-12-30T10:32:52.707Z,89.84
2017-12-30T10:35:20.269Z,89.15
2017-12-30T10:37:47.836Z,88.36
2017-12-30T10:40:15.374Z,89.49
2017-12-30T10:42:42.903Z,86.81
2017-12-30T10:45:10.435Z,84.91
2017-12-30T10:47:37.953Z,84.77
2017-12-30T10:50:05.503Z,85.42
2017-12-30T10:52:33.015Z,85.27
2017-12-30T10:55:00.547Z,84.21
2017-12-30T10:57:28.204Z,84.01
2017-12-30T10:59:55.733Z,86.91
2017-12-30T11:02:23.305Z,85.01
2017-12-30T11:04:50.836Z,84.47
2017-12-30T11:07:18.375Z,84.38
2017-12-30T11:09:45.968Z,85.01
2017-12-30T11:12:13.513Z,83.44
2017-12-30T11:14:41.048Z,84.41
2017-12-30T11:17:08.597Z,83.32
2017-12-30T11:19:36.186Z,82.48
2017-12-30T11:22:03.787Z,83.79
2017-12-30T11:24:31.304Z,84.75
2017-12-30T11:26:58.823Z,84.59
2017-12-30T11:29:26.355Z,84.86
2017-12-30T11:31:53.868Z,84.31
2017-12-30T11:34:21.404Z,84.92
2017-12-30T11:36:48.924Z,84.44
2017-12-30T11:39:16.460Z,85.43
2017-12-30T11:41:43.973Z,85.26
2017-12-30T11:44:11.519Z,85.19
2017-12-30T11:46:39.053Z,84.79
2017-12-30T11:49:06.579Z,84.04
2017-12-30T11:51:34.118Z,83.76
2017-12-30T11:54:01.644Z,84.30
2017-12-30T11:56:29.159Z,84.05
2017-12-30T11:58:56.688Z,82.62
2017-12-30T12:01:24.230Z,82.46
2017-12-30T12:03:51.842Z,82.90
2017-12-30T12:06:19.408Z,83.49
2017-12-30T12:08:46.953Z,82.75
2017-12-30T12:11:14.473Z,82.81
2017-12-30T12:13:42.028Z,83.06
2017-12-30T12:16:09.574Z,84.71
2017-12-30T12:18:37.123Z,86.27
2017-12-30T12:21:04.659Z,87.33
2017-12-30T12:23:32.198Z,86.34
2017-12-30T12:25:59.723Z,86.64
2017-12-30T12:28:27.226Z,86.00
2017-12-30T12:30:54.763Z,85.18
2017-12-30T12:33:22.284Z,85.54
2017-12-30T12:35:49.803Z,86.12
2017-12-30T12:38:17.350Z,87.42
2017-12-30T12:40:44.869Z,87.29
2017-12-30T12:43:12.396Z,86.84
2017-12-30T12:45:39.958Z,87.37
2017-12-30T12:48:07.508Z,87.57
2017-12-30T12:50:35.033Z,87.15
2017-12-30T12:53:02.604Z,87.49
2017-12-30T12:55:30.152Z,86.58
2017-12-30T12:57:57.694Z,87.92
2017-12-30T13:00:25.229Z,88.01
2017-12-30T13:02:52.768Z,88.64
2017-12-30T13:05:20.298Z,88.92
2017-12-30T13:07:47.830Z,88.28
2017-12-30T13:10:15.383Z,88.88
2017-12-30T13:12:42.909Z,88.74
2017-12-30T13:15:10.443Z,87.74
2017-12-30T13:17:37.995Z,89.10
2017-12-30T13:20:05.519Z,89.67
2017-12-30T13:22:33.131Z,89.91
2017-12-30T13:25:00.680Z,88.91
2017-12-30T13:27:28.226Z,88.80
2017-12-30T13:29:55.759Z,88.82
2017-12-30T13:32:23.280Z,89.77
2017-12-30T13:34:50.834Z,89.65
2017-12-30T13:37:18.382Z,88.43
2017-12-30T13:39:45.940Z,89.34
2017-12-30T13:42:13.466Z,90.12
2017-12-30T13:44:41.035Z,89.49
2017-12-30T13:47:08.560Z,90.34
2017-12-30T13:49:36.095Z,89.34
2017-12-30T13:52:03.642Z,89.07
2017-12-30T13:54:31.173Z,89.29
2017-12-30T13:56:58.863Z,89.11
2017-12-30T13:59:26.508Z,89.14
2017-12-30T14:01:54.070Z,88.29
2017-12-30T14:04:21.589Z,88.81
2017-12-30T14:06:49.126Z,89.29
2017-12-30T14:09:16.663Z,88.21
2017-12-30T14:11:44.215Z,87.11
2017-12-30T14:14:11.754Z,87.49
2017-12-30T14:16:39.279Z,87.46
2017-12-30T14:19:06.815Z,87.45
2017-12-30T14:21:34.328Z,87.93
2017-12-30T14:24:01.874Z,87.83
2017-12-30T14:26:29.443Z,88.08
2017-12-30T14:28:56.959Z,88.19
2017-12-30T14:31:24.498Z,87.78
2017-12-30T14:33:52.026Z,87.84
2017-12-30T14:36:19.556Z,88.40
2017-12-30T14:38:47.090Z,88.46
2017-12-30T14:41:14.623Z,88.42
2017-12-30T14:43:42.154Z,88.22
2017-12-30T14:46:09.675Z,88.83
2017-12-30T14:48:37.206Z,88.45
2017-12-30T14:51:04.749Z,89.04
2017-12-30T14:53:32.259Z,88.79
2017-12-30T14:55:59.790Z,88.65
2017-12-30T14:58:27.348Z,88.47
2017-12-30T15:00:54.889Z,89.67
2017-12-30T15:03:22.441Z,89.32
2017-12-30T15:05:49.960Z,89.14
2017-12-30T15:08:17.631Z,89.33
2017-12-30T15:10:45.181Z,90.73
2017-12-30T15:13:12.755Z,89.85
2017-12-30T15:15:40.291Z,90.67
2017-12-30T15:18:07.826Z,90.66
2017-12-30T15:20:35.349Z,90.34
2017-12-30T15:23:02.888Z,92.78
2017-12-30T15:25:30.423Z,93.65
2017-12-30T15:27:57.965Z,92.91
2017-12-30T15:30:25.518Z,89.68
2017-12-30T15:32:53.053Z,93.37
2017-12-30T15:35:20.580Z,94.17
2017-12-30T15:37:48.116Z,93.17
2017-12-30T15:40:15.644Z,93.77
2017-12-30T15:42:43.179Z,93.47
2017-12-30T15:45:10.748Z,92.78
2017-12-30T15:47:38.300Z,94.90
2017-12-30T15:50:05.868Z,94.23
2017-12-30T15:52:33.419Z,95.38
2017-12-30T15:55:00.955Z,95.05
2017-12-30T15:57:28.549Z,93.93
2017-12-30T15:59:56.114Z,94.96
2017-12-30T16:02:23.699Z,93.61
2017-12-30T16:04:51.258Z,94.86
2017-12-30T16:07:18.834Z,94.52
2017-12-30T16:09:46.424Z,95.55
2017-12-30T16:12:13.975Z,95.89
2017-12-30T16:14:41.543Z,94.28
2017-12-30T16:17:09.083Z,93.80
2017-12-30T16:19:36.641Z,94.33
2017-12-30T16:22:04.189Z,94.08
2017-12-30T16:24:31.740Z,94.97
2017-12-30T16:26:59.324Z,94.61
2017-12-30T16:29:26.872Z,94.66
2017-12-30T16:31:54.411Z,94.67
2017-12-30T16:34:21.981Z,93.95
2017-12-30T16:36:49.550Z,93.58
2017-12-30T16:39:17.126Z,93.96
2017-12-30T16:41:44.640Z,92.79
2017-12-30T16:44:12.173Z,93.37
2017-12-30T16:46:39.844Z,93.53
2017-12-30T16:49:07.365Z,93.01
2017-12-30T16:51:34.956Z,92.85
2017-12-30T16:54:02.488Z,92.00
2017-12-30T16:56:30.036Z,91.91
2017-12-30T16:58:57.582Z,91.35
2017-12-30T17:01:25.152Z,92.09
2017-12-30T17:03:52.756Z,92.24
2017-12-30T17:06:20.317Z,92.06
2017-12-30T17:08:47.854Z,92.06
2017-12-30T17:11:15.374Z,91.38
2017-12-30T17:13:42.930Z,91.33
2017-12-30T17:16:10.485Z,91.79
2017-12-30T17:18:38.105Z,91.26
2017-12-30T17:21:05.619Z,91.73
2017-12-30T17:23:33.172Z,90.34
2017-12-30T17:26:00.721Z,91.25
2017-12-30T17:28:28.251Z,90.46
2017-12-30T17:30:55.779Z,90.94
2017-12-30T17:33:23.314Z,93.82
2017-12-30T17:35:50.920Z,93.83
2017-12-30T17:38:18.434Z,92.85
2017-12-30T17:40:45.980Z,93.11
2017-12-30T17:43:13.497Z,93.06
2017-12-30T17:45:41.157Z,91.96
2017-12-30T17:48:08.721Z,92.10
2017-12-30T17:50:36.379Z,93.00
2017-12-30T17:53:04.046Z,92.70
2017-12-30T17:55:31.565Z,91.53
2017-12-30T17:57:59.085Z,91.40
2017-12-30T18:00:26.609Z,89.63
2017-12-30T18:02:54.145Z,90.73
2017-12-30T18:05:21.736Z,89.80
2017-12-30T18:07:49.294Z,90.86
2017-12-30T18:10:16.862Z,90.12
2017-12-30T18:12:44.408Z,90.39
2017-12-30T18:15:11.976Z,89.65
2017-12-30T18:17:39.545Z,89.72
2017-12-30T18:20:07.080Z,89.64
2017-12-30T18:22:34.625Z,89.92
2017-12-30T18:25:02.164Z,89.70
2017-12-30T18:27:30.339Z,89.46
2017-12-30T18:29:57.896Z,89.59
2017-12-30T18:32:25.480Z,89.58
2017-12-30T18:34:53.031Z,90.13
2017-12-30T18:37:20.726Z,89.73
2017-12-30T18:39:48.305Z,89.79
2017-12-30T18:42:15.855Z,89.76
2017-12-30T18:44:44.030Z,89.86
2017-12-30T18:47:11.550Z,89.43
2017-12-30T18:49:39.182Z,89.43
2017-12-30T18:52:08.390Z,89.28
2017-12-30T18:54:36.058Z,88.93
2017-12-30T18:57:03.757Z,88.91
2017-12-30T18:59:31.301Z,88.69
2017-12-30T19:01:58.856Z,88.61
2017-12-30T19:04:26.404Z,89.59
2017-12-30T19:06:53.972Z,89.29
2017-12-30T19:09:21.982Z,88.91
2017-12-30T19:11:49.631Z,89.23
2017-12-30T19:14:17.173Z,88.30
2017-12-30T19:16:45.425Z,88.73
2017-12-30T19:19:13.537Z,88.68
2017-12-30T19:21:41.092Z,88.33
2017-12-30T19:24:08.652Z,88.48
2017-12-30T19:26:36.204Z,88.17
2017-12-30T19:29:03.735Z,88.70
2017-12-30T19:31:31.275Z,88.86
2017-12-30T19:33:58.853Z,88.40
2017-12-30T19:36:26.397Z,88.33
2017-12-30T19:38:53.939Z,88.11
2017-12-30T19:41:21.516Z,88.27
2017-12-30T19:43:49.900Z,88.10
2017-12-30T19:46:17.610Z,88.00
2017-12-30T19:48:45.139Z,87.96
2017-12-30T19:51:12.692Z,88.20
2017-12-30T19:53:40.248Z,88.45
2017-12-30T19:56:07.791Z,89.12
2017-12-30T19:58:35.337Z,89.35
2017-12-30T20:01:02.880Z,90.01
2017-12-30T20:03:30.403Z,90.67
2017-12-30T20:05:57.987Z,90.33
2017-12-30T20:08:25.564Z,90.58
2017-12-30T20:10:53.087Z,90.58
2017-12-30T20:13:20.650Z,90.63
2017-12-30T20:15:48.208Z,90.79
2017-12-30T20:18:15.777Z,90.70
2017-12-30T20:20:43.411Z,90.85
2017-12-30T20:23:11.100Z,90.68
2017-12-30T20:25:38.640Z,91.27
2017-12-30T20:28:06.167Z,90.78
2017-12-30T20:30:33.712Z,91.08
2017-12-30T20:33:01.310Z,91.29
2017-12-30T20:35:28.911Z,91.46
2017-12-30T20:37:56.452Z,91.98
2017-12-30T20:40:24.027Z,91.58
2017-12-30T20:42:51.629Z,92.21
2017-12-30T20:45:31.961Z,91.87
2017-12-30T20:47:59.531Z,91.56
2017-12-30T20:50:27.151Z,91.41
2017-12-30T20:52:54.735Z,91.47
2017-12-30T20:55:22.266Z,91.93
2017-12-30T20:57:49.861Z,91.27
2017-12-30T21:00:17.476Z,90.97
2017-12-30T21:02:46.995Z,91.17
2017-12-30T21:05:17.155Z,90.62
2017-12-30T21:11:09.960Z,91.20
2017-12-30T21:13:37.516Z,91.55
2017-12-30T21:16:05.136Z,90.87
2017-12-30T21:18:32.707Z,91.05
2017-12-30T21:21:00.446Z,91.89
2017-12-30T21:23:28.061Z,92.28
2017-12-30T21:25:55.680Z,92.36
2017-12-30T21:28:23.261Z,92.51
2017-12-30T21:30:50.857Z,92.55
2017-12-30T21:33:18.411Z,92.58
2017-12-30T21:35:48.005Z,92.97
2017-12-30T21:38:15.575Z,93.16
2017-12-30T21:40:43.146Z,93.29
2017-12-30T21:43:10.681Z,93.14
2017-12-30T21:45:38.257Z,93.36
2017-12-30T21:48:05.897Z,93.21
2017-12-30T21:50:33.501Z,93.26
2017-12-30T21:53:01.077Z,93.76
2017-12-30T21:55:28.608Z,93.86
2017-12-30T21:57:56.181Z,93.52
2017-12-30T22:00:23.912Z,93.43
2017-12-30T22:02:51.497Z,93.41
2017-12-30T22:05:19.213Z,93.16
2017-12-30T22:07:46.796Z,93.28
2017-12-30T22:10:14.437Z,93.21
2017-12-30T22:12:42.045Z,93.06
2017-12-30T22:15:09.673Z,92.76
2017-12-30T22:17:37.315Z,93.24
2017-12-30T22:20:05.025Z,93.51
2017-12-30T22:22:32.654Z,93.52
2017-12-30T22:25:00.214Z,93.93
2017-12-30T22:27:27.800Z,93.52
2017-12-30T22:29:55.363Z,93.42
2017-12-30T22:32:22.962Z,93.20
2017-12-30T22:34:50.509Z,93.16
2017-12-30T22:37:18.152Z,92.73
2017-12-30T22:39:52.772Z,92.24
2017-12-30T22:42:22.761Z,91.75
2017-12-30T22:45:07.727Z,91.23
2017-12-30T22:47:35.690Z,91.51
2017-12-30T22:50:03.257Z,91.20
2017-12-30T22:52:39.996Z,91.33
2017-12-30T22:55:11.285Z,90.76
2017-12-30T22:57:41.148Z,90.57
2017-12-30T23:00:08.728Z,90.21
2017-12-30T23:02:36.315Z,90.36
2017-12-30T23:05:03.872Z,90.59
2017-12-30T23:07:31.408Z,90.66
2017-12-30T23:10:02.512Z,91.19
2017-12-30T23:12:30.056Z,90.93
2017-12-30T23:15:06.939Z,91.04
2017-12-30T23:17:34.468Z,91.25
2017-12-30T23:20:02.571Z,91.05
2017-12-30T23:22:45.596Z,91.17
2017-12-30T23:25:13.643Z,90.97
2017-12-30T23:27:41.197Z,90.63
2017-12-30T23:30:08.741Z,89.68
2017-12-30T23:32:36.351Z,89.33
2017-12-30T23:35:03.887Z,89.27
2017-12-30T23:37:31.426Z,88.38
2017-12-30T23:39:58.956Z,88.06
2017-12-30T23:42:26.513Z,88.21
2017-12-30T23:44:54.087Z,87.56
2017-12-30T23:47:21.777Z,87.36
2017-12-30T23:49:49.356Z,87.48
2017-12-30T23:52:17.044Z,87.11
2017-12-30T23:54:44.593Z,86.87
2017-12-30T23:57:12.135Z,86.74
2017-12-30T23:59:39.666Z,85.82
